Time;durP1;ratioP1;P1;durP2;ratioP2;P2;SDS_P1;SDS_P2;PMS_P1;PMS_P2;Temp;Humidity;BMP_temperature;BMP_pressure;BME280_temperature;BME280_humidity;BME280_pressure;Samples;Min_cycle;Max_cycle;Signal;HPM_P1;HPM_P2
2022/04/07 00:01:52;;;;;;;;;;;;;;;19.66;36.06;100111.61;104249;1311;61951;-83
2022/04/07 00:04:37;;;;;;;;;;;;;;;19.67;36.32;100108.38;104380;1311;72861;-81
2022/04/07 00:07:26;;;;;;;;;;;;;;;19.66;36.18;100103.27;104487;1305;76776;-83
2022/04/07 00:10:23;;;;;;;;;;;;;;;19.66;36.27;100096.64;104409;1311;62101;-84
2022/04/07 00:13:09;;;;;;;;;;;;;;;19.65;36.36;100095.08;104421;1311;62067;-84
2022/04/07 00:15:58;;;;;;;;;;;;;;;;;;;;;
2022/04/07 00:18:27;;;;;;;;;;;;;;;19.66;36.31;100087.73;103614;1319;75587;-81
2022/04/07 00:21:13;;;;;;;;;;;;;;;19.66;36.28;100083.98;103618;1319;62140;-84
2022/04/07 00:24:06;;;;;;;;;;;;;;;19.66;36.29;100079.36;103696;1320;61982;-81
2022/04/07 00:26:52;;;;;;;;;;;;;;;19.65;36.36;100082.23;103693;1319;72756;-82
2022/04/07 00:29:45;;;;;;;;;;;;;;;;;;;;;
2022/04/07 00:32:32;;;;;;;;;;;;;;;19.65;36.37;100072.77;102997;1325;62103;-78
2022/04/07 00:35:25;;;;;;;;;;;;;;;19.65;36.41;100069.04;102995;1326;62210;-83
2022/04/07 00:40:53;;;;;;;;;;;;;;;19.66;36.44;100065.96;102171;1335;75696;-84
2022/04/07 00:43:56;;;;;;;;;;;;;;;19.65;36.42;100060.48;102145;1335;62268;-79
2022/04/07 00:46:56;;;;;;;;;;;;;;;19.65;36.42;100050.11;101874;1338;62123;-82
2022/04/07 00:49:39;;;;;;;;;;;;;;;19.65;36.50;100047.11;101924;1334;73438;-83
2022/04/07 00:52:18;;;;;;;;;;;;;;;;;;;;;
2022/04/07 00:55:14;;;;;;;;;;;;;;;19.65;36.48;100041.39;102542;1332;62018;-83
2022/04/07 00:57:51;;;;;;;;;;;;;;;19.65;36.48;100041.73;102182;1334;64104;-78
2022/04/07 01:00:30;;;;;;;;;;;;;;;19.65;36.45;100036.76;102287;1333;73372;-79
2022/04/07 01:03:34;;;;;;;;;;;;;;;;;;;;;
2022/04/07 01:06:33;;;;;;;;;;;;;;;19.65;36.53;100026.22;102367;1329;63863;-85
2022/04/07 01:09:18;;;;;;;;;;;;;;;19.64;36.48;100022.34;102754;1327;62151;-84
2022/04/07 01:11:55;;;;;;;;;;;;;;;19.64;36.53;100022.52;102518;1330;73759;-78
2022/04/07 01:14:33;;;;;;;;;;;;;;;19.64;36.55;100015.91;102485;1329;75516;-83
2022/04/07 01:17:21;;;;;;;;;;;;;;;19.64;36.52;100010.23;102759;1329;62206;-83
2022/04/07 01:20:36;;;;;;;;;;;;;;;19.64;36.50;100007.23;103097;1322;61991;-86
2022/04/07 01:25:55;;;;;;;;;;;;;;;19.63;36.58;100001.00;103797;1316;76867;-81
2022/04/07 01:28:55;;;;;;;;;;;;;;;19.63;36.60;99999.92;103833;1317;62189;-80
2022/04/07 01:31:23;;;;;;;;;;;;;;;19.63;36.54;100000.11;104333;1313;62081;-82
2022/04/07 01:34:18;;;;;;;;;;;;;;;19.63;36.53;99993.87;104305;1313;73248;-82
2022/04/07 01:36:54;;;;;;;;;;;;;;;;;;;;;
2022/04/07 01:40:21;;;;;;;;;;;;;;;;;;;;;
2022/04/07 01:43:16;;;;;;;;;;;;;;;19.63;36.60;99984.63;104089;1317;62119;-89
2022/04/07 01:45:45;;;;;;;;;;;;;;;19.63;36.61;99978.56;103947;1317;73763;-82
2022/04/07 01:48:49;;;;;;;;;;;;;;;19.62;36.64;99970.55;103935;1310;76765;-82
2022/04/07 01:51:53;;;;;;;;;;;;;;;19.62;36.64;99967.70;104456;1310;62250;-82
2022/04/07 01:55:00;;;;;;;;;;;;;;;19.62;36.59;99965.93;104125;1316;62189;-82
2022/04/07 01:57:58;;;;;;;;;;;;;;;;;;;;;
2022/04/07 02:00:56;;;;;;;;;;;;;;;19.63;36.74;99967.15;103283;1322;77014;-82
2022/04/07 02:03:53;;;;;;;;;;;;;;;;;;;;;
2022/04/07 02:07:02;;;;;;;;;;;;;;;;;;;;;
2022/04/07 02:09:46;;;;;;;;;;;;;;;;;;;;;
2022/04/07 02:12:39;;;;;;;;;;;;;;;;;;;;;
2022/04/07 02:15:36;;;;;;;;;;;;;;;19.62;36.71;99967.16;102724;1329;61974;-81
2022/04/07 02:18:25;;;;;;;;;;;;;;;19.62;36.71;99971.98;103020;1323;62002;-80
2022/04/07 02:20:54;;;;;;;;;;;;;;;19.62;36.72;99972.37;102622;1326;71746;-82
2022/04/07 02:23:43;;;;;;;;;;;;;;;19.62;36.74;99967.18;103077;1323;76662;-85
2022/04/07 02:26:23;;;;;;;;;;;;;;;19.62;36.72;99958.98;103057;1323;62258;-80
2022/04/07 02:29:43;;;;;;;;;;;;;;;19.61;36.73;99953.65;102617;1329;62148;-82
2022/04/07 02:32:41;;;;;;;;;;;;;;;;;;;;;
2022/04/07 02:38:36;;;;;;;;;;;;;;;19.60;36.80;99948.38;102742;1328;62105;-85
2022/04/07 02:41:24;;;;;;;;;;;;;;;19.60;36.74;99941.40;102523;1332;62218;-82
2022/04/07 02:43:57;;;;;;;;;;;;;;;19.60;36.80;99943.02;102496;1332;73079;-85
2022/04/07 02:46:26;;;;;;;;;;;;;;;19.60;36.79;99934.83;102462;1332;77293;-82
2022/04/07 02:49:43;;;;;;;;;;;;;;;;;;;;;
2022/04/07 02:52:38;;;;;;;;;;;;;;;19.59;36.81;99931.67;102313;1332;62141;-81
2022/04/07 02:55:12;;;;;;;;;;;;;;;19.60;36.73;99920.58;101830;1338;73589;-85
2022/04/07 02:57:41;;;;;;;;;;;;;;;19.59;36.67;99919.18;101832;1338;76954;-81
2022/04/07 03:00:14;;;;;;;;;;;;;;;19.59;36.76;99922.20;101859;1338;62126;-81
2022/04/07 03:02:49;;;;;;;;;;;;;;;19.59;36.81;99924.91;101862;1338;62175;-81
2022/04/07 03:05:46;;;;;;;;;;;;;;;;;;;;;
2022/04/07 03:08:24;;;;;;;;;;;;;;;19.59;36.76;99922.62;102089;1334;76676;-78
2022/04/07 03:10:52;;;;;;;;;;;;;;;19.58;36.80;99917.13;102114;1335;61925;-85
2022/04/07 03:13:21;;;;;;;;;;;;;;;19.58;36.77;99907.70;102413;1331;63270;-80
2022/04/07 03:16:07;;;;;;;;;;;;;;;19.58;36.74;99898.38;102625;1325;73048;-83
2022/04/07 03:18:51;;;;;;;;;;;;;;;19.58;36.82;99890.90;103171;1319;76527;-81
2022/04/07 03:21:34;;;;;;;;;;;;;;;19.57;36.74;99882.05;103576;1319;59526;-85
2022/04/07 03:24:14;;;;;;;;;;;;;;;19.57;36.77;99876.16;103580;1319;61066;-84
2022/04/07 03:26:46;;;;;;;;;;;;;;;19.56;36.79;99866.27;103557;1319;73882;-82
2022/04/07 03:29:24;;;;;;;;;;;;;;;;;;;;;
2022/04/07 03:32:08;;;;;;;;;;;;;;;19.56;36.77;99851.45;103709;1313;62001;-81
2022/04/07 03:34:38;;;;;;;;;;;;;;;19.56;36.84;99842.52;104293;1313;62846;-85
2022/04/07 03:37:21;;;;;;;;;;;;;;;19.55;36.77;99830.11;104256;1313;72899;-84
2022/04/07 03:40:08;;;;;;;;;;;;;;;19.55;36.83;99817.80;104297;1313;76857;-82
2022/04/07 03:43:06;;;;;;;;;;;;;;;19.55;36.87;99806.73;104348;1313;62091;-79
2022/04/07 03:46:08;;;;;;;;;;;;;;;19.54;36.79;99800.89;103544;1319;62119;-81
2022/04/07 03:48:56;;;;;;;;;;;;;;;19.53;36.85;99798.99;103539;1319;71494;-83
2022/04/07 03:51:55;;;;;;;;;;;;;;;19.53;36.88;99797.61;103358;1319;74383;-82
2022/04/07 03:54:43;;;;;;;;;;;;;;;19.53;36.80;99797.30;103544;1319;62018;-88
2022/04/07 03:57:12;;;;;;;;;;;;;;;19.52;36.76;99795.92;103524;1319;62253;-78
2022/04/07 04:00:09;;;;;;;;;;;;;;;19.50;36.68;99803.88;103426;1319;72947;-80
2022/04/07 04:02:48;;;;;;;;;;;;;;;;;;;;;
2022/04/07 04:05:30;;;;;;;;;;;;;;;19.40;36.57;99798.13;103435;1319;62100;-85
2022/04/07 04:08:21;;;;;;;;;;;;;;;;;;;;;
2022/04/07 04:11:22;;;;;;;;;;;;;;;;;;;;;
2022/04/07 04:14:01;;;;;;;;;;;;;;;19.38;36.52;99795.09;103332;1320;74745;-86
2022/04/07 04:16:54;;;;;;;;;;;;;;;19.37;36.40;99789.39;103550;1319;61991;-85
2022/04/07 04:19:25;;;;;;;;;;;;;;;19.38;36.40;99785.09;102745;1325;61446;-83
2022/04/07 04:22:03;;;;;;;;;;;;;;;;;;;;;
2022/04/07 04:24:39;;;;;;;;;;;;;;;19.37;36.32;99789.38;103343;1319;76554;-85
2022/04/07 04:27:18;;;;;;;;;;;;;;;19.37;36.14;99786.58;103416;1319;62123;-83
2022/04/07 04:29:56;;;;;;;;;;;;;;;;;;;;;
2022/04/07 04:32:47;;;;;;;;;;;;;;;19.37;36.11;99789.23;103523;1319;72910;-82
2022/04/07 04:35:23;;;;;;;;;;;;;;;19.37;36.09;99782.84;103555;1319;75531;-84
2022/04/07 04:37:49;;;;;;;;;;;;;;;19.36;35.98;99779.32;103487;1317;60632;-82
2022/04/07 04:40:15;;;;;;;;;;;;;;;19.36;36.07;99779.52;103411;1313;60633;-80
2022/04/07 04:42:50;;;;;;;;;;;;;;;19.35;36.10;99782.80;103826;1313;73905;-80
2022/04/07 04:45:27;;;;;;;;;;;;;;;19.34;36.03;99783.23;103972;1313;76676;-80
2022/04/07 04:47:53;;;;;;;;;;;;;;;19.33;35.91;99774.78;103889;1313;62094;-80
2022/04/07 04:50:18;;;;;;;;;;;;;;;19.32;35.92;99772.00;103852;1314;60196;-80
2022/04/07 04:52:44;;;;;;;;;;;;;;;19.31;35.86;99771.35;103782;1313;62430;-80
2022/04/07 04:55:09;;;;;;;;;;;;;;;19.30;35.77;99769.66;103602;1312;62159;-80
2022/04/07 04:57:38;;;;;;;;;;;;;;;19.27;35.86;99763.78;104098;1305;62177;-80
2022/04/07 05:00:04;;;;;;;;;;;;;;;19.26;35.79;99760.35;104051;1306;61618;-80
2022/04/07 05:02:33;;;;;;;;;;;;;;;19.23;35.56;99747.70;104028;1307;62155;-79
2022/04/07 05:04:58;;;;;;;;;;;;;;;19.17;35.44;99743.19;104305;1303;72949;-79
2022/04/07 05:07:24;;;;;;;;;;;;;;;19.08;35.48;99736.05;104199;1305;62148;-80
2022/04/07 05:09:54;;;;;;;;;;;;;;;19.01;35.28;99736.61;104091;1305;62234;-79
2022/04/07 05:12:19;;;;;;;;;;;;;;;18.99;35.39;99733.57;104281;1303;62039;-79
2022/04/07 05:14:45;;;;;;;;;;;;;;;19.00;35.27;99734.34;104333;1303;60415;-81
2022/04/07 05:17:11;;;;;;;;;;;;;;;19.04;35.33;99731.42;104149;1305;62020;-79
2022/04/07 05:19:38;;;;;;;;;;;;;;;19.06;35.28;99735.86;104080;1307;62152;-80
2022/04/07 05:22:06;;;;;;;;;;;;;;;18.97;35.17;99741.20;104337;1306;62113;-81
2022/04/07 05:24:32;;;;;;;;;;;;;;;18.87;35.14;99740.86;105280;1305;60398;-79
2022/04/07 05:26:58;;;;;;;;;;;;;;;18.83;35.18;99736.38;105447;1303;60457;-79
2022/04/07 05:29:24;;;;;;;;;;;;;;;18.81;35.25;99727.63;105525;1304;60225;-79
2022/04/07 05:31:49;;;;;;;;;;;;;;;18.84;35.31;99719.35;105284;1306;60831;-80
2022/04/07 05:34:15;;;;;;;;;;;;;;;18.83;35.17;99716.99;105121;1305;60025;-81
2022/04/07 05:36:42;;;;;;;;;;;;;;;18.55;34.93;99713.04;104350;1303;62171;-80
2022/04/07 05:39:07;;;;;;;;;;;;;;;18.29;35.04;99709.39;104462;1304;62119;-80
2022/04/07 05:41:33;;;;;;;;;;;;;;;18.31;35.16;99709.98;104457;1305;61921;-80
2022/04/07 05:43:59;;;;;;;;;;;;;;;18.39;35.08;99705.72;104211;1306;62108;-81
2022/04/07 05:46:31;;;;;;;;;;;;;;;18.45;35.05;99701.38;104301;1306;62126;-82
2022/04/07 05:49:05;;;;;;;;;;;;;;;18.49;34.95;99701.74;104487;1305;76591;-81
2022/04/07 05:51:31;;;;;;;;;;;;;;;18.52;35.07;99695.29;104443;1305;60478;-81
2022/04/07 05:53:56;;;;;;;;;;;;;;;18.54;34.78;99696.23;104345;1306;62255;-80
2022/04/07 05:56:21;;;;;;;;;;;;;;;18.43;34.92;99693.69;104453;1305;62057;-81
2022/04/07 05:58:54;;;;;;;;;;;;;;;18.35;34.78;99687.56;104405;1304;62138;-80
2022/04/07 06:01:48;;;;;;;;;;;;;;;18.35;34.77;99685.73;104360;1304;61878;-80
2022/04/07 06:04:13;;;;;;;;;;;;;;;18.34;34.54;99681.73;104011;1303;62010;-79
2022/04/07 06:06:59;;;;;;;;;;;;;;;18.11;34.70;99670.83;103848;1306;71032;-80
2022/04/07 06:09:25;;;;;;;;;;;;;;;18.17;34.87;99667.54;105068;1307;76557;-80
2022/04/07 06:11:51;;;;;;;;;;;;;;;18.30;34.85;99667.28;104238;1305;62201;-79
2022/04/07 06:14:17;;;;;;;;;;;;;;;18.43;34.99;99669.65;104504;1306;62200;-78
2022/04/07 06:16:42;;;;;;;;;;;;;;;18.54;34.78;99675.70;104060;1305;62255;-78
2022/04/07 06:19:11;;;;;;;;;;;;;;;18.66;34.80;99671.20;103889;1305;62187;-79
2022/04/07 06:21:43;;;;;;;;;;;;;;;18.79;34.79;99667.77;103874;1306;62123;-79
2022/04/07 06:24:09;;;;;;;;;;;;;;;18.89;34.79;99662.11;104056;1304;61973;-79
2022/04/07 06:26:41;;;;;;;;;;;;;;;19.01;34.57;99660.46;103975;1303;62263;-82
2022/04/07 06:29:06;;;;;;;;;;;;;;;19.12;34.80;99653.41;104415;1304;76640;-79
2022/04/07 06:31:32;;;;;;;;;;;;;;;19.23;34.92;99645.16;104266;1306;62199;-79
2022/04/07 06:33:57;;;;;;;;;;;;;;;19.33;34.93;99639.53;104229;1305;62165;-79
2022/04/07 06:36:23;;;;;;;;;;;;;;;19.41;34.96;99632.27;103998;1303;61008;-79
2022/04/07 06:38:49;;;;;;;;;;;;;;;19.49;35.10;99627.86;103789;1307;62095;-79
2022/04/07 06:41:14;;;;;;;;;;;;;;;19.56;35.09;99628.11;104116;1304;75308;-80
2022/04/07 06:43:40;;;;;;;;;;;;;;;19.64;35.03;99629.16;103867;1305;64344;-78
2022/04/07 06:46:06;;;;;;;;;;;;;;;19.70;35.19;99625.20;103887;1305;62188;-80
2022/04/07 06:48:32;;;;;;;;;;;;;;;19.75;35.17;99623.34;104322;1303;768081;-81
2022/04/07 06:50:58;;;;;;;;;;;;;;;19.79;34.94;99625.95;104169;1305;62233;-79
2022/04/07 06:53:23;;;;;;;;;;;;;;;19.81;34.84;99620.63;104288;1305;64069;-80
2022/04/07 06:55:49;;;;;;;;;;;;;;;19.71;34.54;99615.69;104077;1305;62079;-81
2022/04/07 06:58:15;;;;;;;;;;;;;;;19.61;34.52;99608.45;104306;1305;62255;-80
2022/04/07 07:00:42;;;;;;;;;;;;;;;19.54;34.52;99602.86;104253;1303;62149;-80
2022/04/07 07:03:08;;;;;;;;;;;;;;;19.53;34.57;99600.92;105154;1305;61537;-80
2022/04/07 07:05:35;;;;;;;;;;;;;;;19.53;34.62;99601.82;104853;1306;60180;-80
2022/04/07 07:08:30;;;;;;;;;;;;;;;19.62;34.44;99600.40;105246;1303;61268;-80
2022/04/07 07:10:55;;;;;;;;;;;;;;;19.67;34.39;99597.99;104293;1311;74100;-79
2022/04/07 07:13:21;;;;;;;;;;;;;;;19.71;34.14;99594.41;103775;1311;60932;-79
2022/04/07 07:15:47;;;;;;;;;;;;;;;19.76;34.18;99589.92;104907;1310;60180;-80
2022/04/07 07:18:12;;;;;;;;;;;;;;;19.81;34.06;99592.60;104251;1311;60684;-80
2022/04/07 07:20:38;;;;;;;;;;;;;;;19.83;33.98;99584.19;104041;1311;62141;-80
2022/04/07 07:23:04;;;;;;;;;;;;;;;19.84;33.85;99581.04;104091;1311;60627;-81
2022/04/07 07:25:31;;;;;;;;;;;;;;;19.85;33.65;99575.95;104055;1311;76591;-80
2022/04/07 07:27:56;;;;;;;;;;;;;;;19.87;33.58;99571.35;103924;1313;62068;-79
2022/04/07 07:30:22;;;;;;;;;;;;;;;19.86;33.65;99565.56;104016;1314;62069;-81
2022/04/07 07:32:48;;;;;;;;;;;;;;;19.85;33.57;99560.96;104040;1313;62221;-79
2022/04/07 07:35:13;;;;;;;;;;;;;;;19.88;33.54;99554.30;103818;1316;62016;-79
2022/04/07 07:37:52;;;;;;;;;;;;;;;19.83;33.42;99548.82;104018;1314;60108;-80
2022/04/07 07:40:18;;;;;;;;;;;;;;;19.84;33.49;99544.83;104676;1313;60591;-80
2022/04/07 07:42:43;;;;;;;;;;;;;;;19.83;33.22;99537.94;103867;1314;61006;-79
2022/04/07 07:45:09;;;;;;;;;;;;;;;19.79;33.23;99534.84;103641;1314;62189;-81
2022/04/07 07:47:35;;;;;;;;;;;;;;;19.81;33.21;99534.04;104020;1308;62132;-80
2022/04/07 07:50:05;;;;;;;;;;;;;;;19.75;33.21;99528.96;103964;1308;61533;-79
2022/04/07 07:52:30;;;;;;;;;;;;;;;19.70;33.11;99534.02;103872;1309;73690;-80
2022/04/07 07:54:56;;;;;;;;;;;;;;;19.49;33.06;99533.11;103915;1309;60982;-80
2022/04/07 07:57:30;;;;;;;;;;;;;;;19.28;32.72;99528.77;104054;1308;62293;-79
2022/04/07 07:59:56;;;;;;;;;;;;;;;19.09;32.79;99524.83;104527;1305;61919;-78
2022/04/07 08:02:22;;;;;;;;;;;;;;;19.05;32.92;99518.22;104314;1306;60128;-80
2022/04/07 08:04:47;;;;;;;;;;;;;;;19.06;32.90;99510.42;104563;1306;60292;-79
2022/04/07 08:07:13;;;;;;;;;;;;;;;18.97;32.71;99511.05;104584;1306;60501;-79
2022/04/07 08:09:38;;;;;;;;;;;;;;;18.80;32.66;99504.00;104243;1305;61331;-80
2022/04/07 08:12:12;;;;;;;;;;;;;;;18.74;32.57;99495.36;104248;1305;72659;-82
2022/04/07 08:14:40;;;;;;;;;;;;;;;18.68;32.33;99489.84;104449;1304;76333;-81
2022/04/07 08:17:08;;;;;;;;;;;;;;;18.64;32.38;99486.59;104288;1306;62086;-80
2022/04/07 08:19:35;;;;;;;;;;;;;;;18.68;32.38;99475.40;104291;1305;61998;-80
2022/04/07 08:22:02;;;;;;;;;;;;;;;18.78;32.50;99470.45;104309;1306;75456;-79
2022/04/07 08:24:27;;;;;;;;;;;;;;;18.90;32.36;99468.83;104295;1305;61872;-81
2022/04/07 08:26:53;;;;;;;;;;;;;;;19.00;32.34;99468.77;104287;1306;62150;-80
2022/04/07 08:29:18;;;;;;;;;;;;;;;18.93;31.81;99462.00;104222;1306;62183;-80
2022/04/07 08:31:57;;;;;;;;;;;;;;;;;;;;;
2022/04/07 08:34:22;;;;;;;;;;;;;;;18.99;32.03;99449.75;104714;1305;76473;-80
2022/04/07 08:36:49;;;;;;;;;;;;;;;19.10;32.12;99447.41;104409;1303;61160;-80
2022/04/07 08:39:15;;;;;;;;;;;;;;;19.21;32.08;99448.38;104397;1305;61960;-80
2022/04/07 08:41:42;;;;;;;;;;;;;;;19.23;31.76;99449.63;104271;1306;62223;-80
2022/04/07 08:44:07;;;;;;;;;;;;;;;19.29;31.76;99449.91;104211;1307;61996;-82
2022/04/07 08:46:35;;;;;;;;;;;;;;;19.33;31.81;99439.71;104448;1303;62073;-81
2022/04/07 08:49:12;;;;;;;;;;;;;;;19.42;31.86;99428.45;104161;1307;61654;-80
2022/04/07 08:51:41;;;;;;;;;;;;;;;19.52;31.84;99419.88;104249;1305;73951;-80
2022/04/07 08:54:12;;;;;;;;;;;;;;;19.59;31.69;99422.34;104555;1305;62061;-79
2022/04/07 08:56:38;;;;;;;;;;;;;;;19.61;31.74;99415.77;103997;1306;62118;-81
2022/04/07 08:59:04;;;;;;;;;;;;;;;19.65;31.74;99404.70;104009;1305;60983;-83
2022/04/07 09:01:29;;;;;;;;;;;;;;;19.71;31.78;99399.70;103738;1306;62100;-80
2022/04/07 09:03:55;;;;;;;;;;;;;;;19.73;31.69;99399.38;103718;1306;62121;-80
2022/04/07 09:06:21;;;;;;;;;;;;;;;19.71;31.33;99390.95;103918;1304;62124;-79
2022/04/07 09:08:51;;;;;;;;;;;;;;;19.70;31.30;99385.16;103610;1305;62061;-81
2022/04/07 09:11:16;;;;;;;;;;;;;;;19.71;31.42;99369.16;103741;1303;62558;-80
2022/04/07 09:13:42;;;;;;;;;;;;;;;19.74;31.41;99368.05;103840;1305;62162;-80
2022/04/07 09:16:13;;;;;;;;;;;;;;;19.75;31.41;99371.82;104907;1305;60327;-81
2022/04/07 09:18:40;;;;;;;;;;;;;;;19.75;31.30;99368.67;104030;1305;61955;-79
2022/04/07 09:21:06;;;;;;;;;;;;;;;19.72;31.14;99360.38;104185;1305;73668;-82
2022/04/07 09:23:39;;;;;;;;;;;;;;;19.69;30.99;99357.43;104363;1303;75644;-79
2022/04/07 09:26:10;;;;;;;;;;;;;;;19.66;30.97;99354.23;104799;1303;62105;-79
2022/04/07 09:28:36;;;;;;;;;;;;;;;19.67;30.93;99351.36;104131;1306;62309;-79
2022/04/07 09:31:13;;;;;;;;;;;;;;;19.68;31.05;99348.21;103912;1306;62121;-80
2022/04/07 09:33:39;;;;;;;;;;;;;;;19.68;30.95;99349.09;104168;1303;76987;-80
2022/04/07 09:36:07;;;;;;;;;;;;;;;19.71;30.79;99351.54;103914;1305;62140;-81
2022/04/07 09:38:37;;;;;;;;;;;;;;;19.75;30.87;99351.17;104202;1303;62172;-79
2022/04/07 09:41:19;;;;;;;;;;;;;;;19.80;30.90;99348.63;104128;1306;73139;-81
2022/04/07 09:43:57;;;;;;;;;;;;;;;19.84;31.18;99344.14;103925;1306;76173;-81
2022/04/07 09:46:27;;;;;;;;;;;;;;;19.85;31.03;99339.41;104045;1306;61969;-82
2022/04/07 09:49:07;;;;;;;;;;;;;;;19.86;30.95;99333.44;103975;1303;62200;-79
2022/04/07 09:51:36;;;;;;;;;;;;;;;19.84;30.67;99326.13;105176;1305;73819;-81
2022/04/07 09:54:10;;;;;;;;;;;;;;;19.83;30.87;99324.08;104657;1305;76657;-80
2022/04/07 09:56:36;;;;;;;;;;;;;;;19.85;30.96;99314.98;105264;1303;60587;-80
2022/04/07 09:59:01;;;;;;;;;;;;;;;19.84;31.01;99312.34;105204;1303;60639;-80
2022/04/07 10:01:27;;;;;;;;;;;;;;;19.84;30.97;99315.05;105139;1303;60213;-80
2022/04/07 10:03:52;;;;;;;;;;;;;;;19.85;30.90;99317.67;105255;1305;61392;-80
2022/04/07 10:06:18;;;;;;;;;;;;;;;19.84;30.90;99311.62;105361;1303;77270;-80
2022/04/07 10:08:44;;;;;;;;;;;;;;;19.85;30.94;99313.35;105446;1303;60389;-80
2022/04/07 10:11:10;;;;;;;;;;;;;;;19.86;31.09;99306.13;105073;1305;60174;-80
2022/04/07 10:13:36;;;;;;;;;;;;;;;19.81;30.68;99305.52;105210;1305;60451;-80
2022/04/07 10:16:03;;;;;;;;;;;;;;;19.72;30.61;99298.90;105169;1305;60746;-80
2022/04/07 10:18:49;;;;;;;;;;;;;;;19.69;30.54;99296.20;105209;1305;60402;-80
2022/04/07 10:21:37;;;;;;;;;;;;;;;19.66;30.78;99290.71;105496;1304;61309;-81
2022/04/07 10:24:03;;;;;;;;;;;;;;;19.69;30.89;99286.55;105367;1305;72899;-80
2022/04/07 10:26:29;;;;;;;;;;;;;;;19.72;30.89;99286.67;105298;1305;76607;-80
2022/04/07 10:28:58;;;;;;;;;;;;;;;19.74;31.06;99277.32;105418;1303;60282;-80
2022/04/07 10:31:25;;;;;;;;;;;;;;;19.75;31.17;99271.17;104322;1306;62226;-80
2022/04/07 10:33:50;;;;;;;;;;;;;;;19.78;31.16;99266.83;104437;1305;73796;-79
2022/04/07 10:36:17;;;;;;;;;;;;;;;19.80;31.13;99259.85;104336;1303;62079;-79
2022/04/07 10:38:44;;;;;;;;;;;;;;;19.83;31.30;99262.17;105511;1302;60675;-80
2022/04/07 10:41:10;;;;;;;;;;;;;;;19.83;31.20;99261.27;105167;1305;60514;-80
2022/04/07 10:43:53;;;;;;;;;;;;;;;;;;;;;
2022/04/07 10:46:18;;;;;;;;;;;;;;;19.81;31.30;99252.98;105261;1305;75668;-80
2022/04/07 10:48:45;;;;;;;;;;;;;;;19.80;31.20;99248.06;104272;1305;63283;-80
2022/04/07 10:51:13;;;;;;;;;;;;;;;19.79;31.35;99247.45;104440;1303;60237;-80
2022/04/07 10:53:39;;;;;;;;;;;;;;;19.79;31.20;99248.21;104428;1305;74031;-80
2022/04/07 10:56:21;;;;;;;;;;;;;;;19.75;31.05;99241.39;104301;1305;61975;-80
2022/04/07 10:58:51;;;;;;;;;;;;;;;19.72;30.96;99237.91;104448;1306;61362;-80
2022/04/07 11:01:51;;;;;;;;;;;;;;;19.68;31.01;99232.52;105427;1303;61039;-80
2022/04/07 11:04:22;;;;;;;;;;;;;;;19.68;30.98;99227.40;104702;1311;73748;-80
2022/04/07 11:07:10;;;;;;;;;;;;;;;19.65;31.05;99226.74;104603;1311;74598;-80
2022/04/07 11:09:48;;;;;;;;;;;;;;;19.65;31.25;99226.77;104698;1311;61276;-80
2022/04/07 11:12:18;;;;;;;;;;;;;;;19.64;31.05;99227.70;104798;1311;62479;-80
2022/04/07 11:14:46;;;;;;;;;;;;;;;19.57;31.20;99228.89;104743;1313;73733;-80
2022/04/07 11:17:22;;;;;;;;;;;;;;;19.52;31.31;99225.02;104646;1311;76725;-80
2022/04/07 11:19:55;;;;;;;;;;;;;;;19.49;31.55;99237.08;104710;1313;60861;-80
2022/04/07 11:22:22;;;;;;;;;;;;;;;19.46;31.76;99246.45;104881;1311;60470;-80
2022/04/07 11:24:51;;;;;;;;;;;;;;;19.44;31.92;99257.48;104598;1313;73852;-80
2022/04/07 11:27:31;;;;;;;;;;;;;;;19.44;32.26;99270.34;104797;1313;75583;-79
2022/04/07 11:30:03;;;;;;;;;;;;;;;19.48;32.49;99275.70;104830;1311;61163;-79
2022/04/07 11:32:29;;;;;;;;;;;;;;;19.53;32.50;99280.14;104471;1311;61900;-82
2022/04/07 11:34:57;;;;;;;;;;;;;;;19.49;32.90;99282.42;104634;1314;61032;-79
2022/04/07 11:37:23;;;;;;;;;;;;;;;19.44;33.18;99286.60;104552;1311;76205;-80
2022/04/07 11:39:53;;;;;;;;;;;;;;;19.41;33.43;99287.40;104720;1303;60638;-81
2022/04/07 11:42:18;;;;;;;;;;;;;;;19.33;33.88;99287.34;105061;1304;60318;-81
2022/04/07 11:44:45;;;;;;;;;;;;;;;19.28;34.19;99286.42;105170;1305;60443;-80
2022/04/07 11:47:25;;;;;;;;;;;;;;;19.28;34.30;99288.38;105030;1307;60199;-80
2022/04/07 11:49:51;;;;;;;;;;;;;;;19.32;34.55;99291.38;105486;1304;61082;-80
2022/04/07 11:52:27;;;;;;;;;;;;;;;19.34;34.68;99292.30;105346;1303;60180;-80
2022/04/07 11:54:53;;;;;;;;;;;;;;;19.34;34.92;99297.30;105286;1305;73747;-80
2022/04/07 11:57:20;;;;;;;;;;;;;;;19.34;35.06;99300.82;105642;1304;59865;-80
2022/04/07 11:59:45;;;;;;;;;;;;;;;19.35;35.20;99303.06;105513;1302;60229;-80
2022/04/07 12:02:18;;;;;;;;;;;;;;;19.36;35.25;99299.40;105445;1305;60769;-80
2022/04/07 12:04:43;;;;;;;;;;;;;;;19.40;35.40;99298.02;105217;1306;72974;-79
2022/04/07 12:07:09;;;;;;;;;;;;;;;19.41;35.55;99294.16;105440;1302;60554;-80
2022/04/07 12:09:35;;;;;;;;;;;;;;;19.43;35.65;99288.14;105368;1305;60018;-79
2022/04/07 12:12:00;;;;;;;;;;;;;;;19.46;35.68;99287.19;105559;1304;60018;-79
2022/04/07 12:14:26;;;;;;;;;;;;;;;19.48;35.53;99290.52;105476;1305;60190;-79
2022/04/07 12:16:51;;;;;;;;;;;;;;;19.51;35.87;99291.52;105506;1305;59849;-79
2022/04/07 12:19:19;;;;;;;;;;;;;;;19.51;35.94;99293.67;105354;1305;61292;-80
2022/04/07 12:21:56;;;;;;;;;;;;;;;19.52;35.89;99291.97;104296;1305;62077;-79
2022/04/07 12:24:25;;;;;;;;;;;;;;;19.53;35.89;99286.34;104466;1305;62057;-81
2022/04/07 12:26:52;;;;;;;;;;;;;;;19.53;35.91;99287.05;104456;1305;72956;-82
2022/04/07 12:30:11;;;;;;;;;;;;;;;;;;;;;
2022/04/07 12:32:57;;;;;;;;;;;;;;;19.54;35.90;99287.19;104216;1311;62115;-83
2022/04/07 12:36:13;;;;;;;;;;;;;;;19.53;36.10;99287.58;104254;1311;62200;-87
2022/04/07 12:38:49;;;;;;;;;;;;;;;19.53;36.22;99290.81;103779;1317;72886;-82
2022/04/07 12:41:18;;;;;;;;;;;;;;;19.53;36.07;99291.55;103340;1317;76745;-83
2022/04/07 12:43:55;;;;;;;;;;;;;;;19.52;36.25;99290.36;103662;1320;59657;-83
2022/04/07 12:46:26;;;;;;;;;;;;;;;19.52;36.15;99287.02;103679;1317;62560;-79
2022/04/07 12:49:25;;;;;;;;;;;;;;;19.51;36.28;99286.50;103564;1320;73818;-83
2022/04/07 12:52:18;;;;;;;;;;;;;;;19.50;36.35;99279.47;103453;1320;76540;-81
2022/04/07 12:55:17;;;;;;;;;;;;;;;19.48;36.39;99274.97;103646;1320;62012;-82
2022/04/07 12:58:11;;;;;;;;;;;;;;;19.48;36.56;99273.09;103526;1318;62019;-84
2022/04/07 13:00:53;;;;;;;;;;;;;;;19.47;36.63;99272.80;103666;1316;71974;-81
2022/04/07 13:03:22;;;;;;;;;;;;;;;19.46;36.72;99274.18;103513;1319;75804;-79
2022/04/07 13:05:55;;;;;;;;;;;;;;;19.44;36.86;99268.19;103645;1317;62189;-80
2022/04/07 13:08:21;;;;;;;;;;;;;;;19.44;36.90;99267.33;103075;1317;62050;-80
2022/04/07 13:10:58;;;;;;;;;;;;;;;19.44;36.80;99264.66;103892;1314;73965;-79
2022/04/07 13:13:27;;;;;;;;;;;;;;;19.45;37.00;99264.80;103985;1314;75602;-79
2022/04/07 13:16:01;;;;;;;;;;;;;;;19.45;37.19;99267.05;104532;1305;61972;-79
2022/04/07 13:18:47;;;;;;;;;;;;;;;19.46;37.19;99265.70;104463;1305;61956;-79
2022/04/07 13:21:17;;;;;;;;;;;;;;;19.48;37.26;99264.30;104537;1305;73710;-80
2022/04/07 13:23:43;;;;;;;;;;;;;;;19.50;37.20;99262.66;104470;1305;76428;-81
2022/04/07 13:26:29;;;;;;;;;;;;;;;19.52;37.24;99258.78;104654;1305;62078;-80
2022/04/07 13:29:13;;;;;;;;;;;;;;;19.53;37.29;99261.73;104640;1305;62408;-81
2022/04/07 13:32:00;;;;;;;;;;;;;;;19.54;37.20;99260.00;104647;1305;73198;-78
2022/04/07 13:35:06;;;;;;;;;;;;;;;19.56;37.23;99256.98;104667;1305;75550;-84
2022/04/07 13:38:12;;;;;;;;;;;;;;;19.58;37.53;99255.95;104467;1305;61986;-81
2022/04/07 13:40:57;;;;;;;;;;;;;;;19.59;37.47;99253.47;104304;1314;62059;-82
2022/04/07 13:44:02;;;;;;;;;;;;;;;;;;;;;
2022/04/07 13:46:48;;;;;;;;;;;;;;;19.61;37.50;99250.13;104183;1312;77057;-84
2022/04/07 13:49:54;;;;;;;;;;;;;;;;;;;;;
2022/04/07 13:53:01;;;;;;;;;;;;;;;19.64;37.82;99242.95;102985;1324;63055;-83
2022/04/07 13:55:37;;;;;;;;;;;;;;;;;;;;;
2022/04/07 13:58:24;;;;;;;;;;;;;;;19.65;37.87;99228.73;102954;1326;75923;-82
2022/04/07 14:01:26;;;;;;;;;;;;;;;19.66;37.96;99228.48;102939;1325;62096;-82